Time;durP1;ratioP1;P1;durP2;ratioP2;P2;SDS_P1;SDS_P2;PMS_P1;PMS_P2;Temp;Humidity;BMP_temperature;BMP_pressure;BME280_temperature;BME280_humidity;BME280_pressure;Samples;Min_cycle;Max_cycle;Signal;HPM_P1;HPM_P2
2023/07/02 00:02:16;;;;;;;6.38;3.05;;;;;;;18.68;64.00;98828.84;5104031;28;20056;-81
2023/07/02 00:04:43;;;;;;;5.90;3.10;;;;;;;18.69;63.89;98824.38;5090732;28;20059;-81
2023/07/02 00:07:10;;;;;;;4.60;3.15;;;;;;;18.69;63.61;98827.03;5091843;28;20093;-81
2023/07/02 00:09:37;;;;;;;3.03;2.70;;;;;;;18.69;63.68;98819.03;5090414;28;20139;-81
2023/07/02 00:12:04;;;;;;;5.22;2.72;;;;;;;18.69;64.07;98819.84;5095527;28;20051;-81
2023/07/02 00:14:30;;;;;;;8.35;3.17;;;;;;;18.69;63.62;98816.38;5112365;28;20058;-81
2023/07/02 00:16:57;;;;;;;9.05;3.42;;;;;;;18.68;63.57;98817.34;5111939;28;20170;-81
2023/07/02 00:19:24;;;;;;;6.25;3.40;;;;;;;18.66;63.78;98814.88;5111948;28;20108;-81
2023/07/02 00:21:53;;;;;;;4.75;3.30;;;;;;;18.65;63.85;98812.38;5111893;28;20047;-81
2023/07/02 00:24:19;;;;;;;5.22;3.05;;;;;;;18.64;63.44;98816.03;5090337;28;20144;-81
2023/07/02 00:26:46;;;;;;;5.70;3.10;;;;;;;18.62;63.72;98817.00;5091457;28;20090;-81
2023/07/02 00:29:13;;;;;;;7.63;3.47;;;;;;;18.61;63.61;98811.84;5091583;28;20083;-81
2023/07/02 00:31:40;;;;;;;5.85;2.97;;;;;;;18.61;63.80;98822.50;5091434;28;20083;-81
2023/07/02 00:34:06;;;;;;;5.95;3.70;;;;;;;18.59;63.71;98820.03;5105090;28;20056;-81
2023/07/02 00:36:33;;;;;;;4.68;3.10;;;;;;;18.60;63.88;98816.34;5111367;28;20134;-81
2023/07/02 00:38:59;;;;;;;7.88;3.33;;;;;;;18.63;63.73;98825.84;5111439;28;20131;-81
2023/07/02 00:41:26;;;;;;;3.90;3.50;;;;;;;18.62;63.78;98822.34;5112018;27;20493;-81
2023/07/02 00:43:54;;;;;;;5.10;3.38;;;;;;;18.65;63.71;98823.03;5101171;27;20304;-81
2023/07/02 00:46:24;;;;;;;9.02;3.75;;;;;;;18.66;63.58;98819.38;5088909;28;20052;-81
2023/07/02 00:48:55;;;;;;;5.53;3.30;;;;;;;18.66;63.73;98811.38;5089602;28;20079;-81
2023/07/02 00:51:26;;;;;;;7.43;3.55;;;;;;;18.68;63.69;98817.34;5242300;22;20155;-77
2023/07/02 00:53:54;;;;;;;4.38;3.42;;;;;;;18.70;63.85;98815.38;5112318;28;20457;-76
2023/07/02 00:56:22;;;;;;;4.57;4.00;;;;;;;18.71;64.06;98812.53;5112510;28;20052;-75
2023/07/02 00:58:51;;;;;;;5.03;3.67;;;;;;;18.72;63.79;98808.88;5112379;28;20100;-77
2023/07/02 01:01:19;;;;;;;6.93;3.78;;;;;;;18.74;63.90;98806.06;5112343;28;20577;-76
2023/07/02 01:03:59;;;;;;;5.38;3.67;;;;;;;18.75;64.35;98810.38;5111903;28;20079;-76
2023/07/02 01:06:34;;;;;;;7.75;3.97;;;;;;;18.75;64.30;98807.72;5110466;28;20376;-77
2023/07/02 01:09:05;;;;;;;6.45;3.42;;;;;;;18.79;64.00;98803.72;5112092;28;20040;-77
2023/07/02 01:11:38;;;;;;;10.05;4.03;;;;;;;18.81;64.19;98806.22;5112191;27;20079;-76
2023/07/02 01:14:10;;;;;;;7.53;4.18;;;;;;;18.81;64.37;98801.75;5111912;28;20140;-76
2023/07/02 01:16:39;;;;;;;10.32;3.88;;;;;;;18.84;64.05;98801.38;5112059;28;20046;-76
2023/07/02 01:19:13;;;;;;;6.70;4.45;;;;;;;18.83;64.10;98794.41;5110656;28;20403;-77
2023/07/02 01:21:40;;;;;;;5.20;3.95;;;;;;;18.86;64.01;98794.06;5112179;28;20089;-76
2023/07/02 01:24:07;;;;;;;6.90;4.00;;;;;;;18.87;63.91;98798.41;5111777;28;20039;-76
2023/07/02 01:26:34;;;;;;;7.22;4.25;;;;;;;18.88;64.08;98793.91;5111370;28;20067;-76
2023/07/02 01:29:20;;;;;;;6.70;3.67;;;;;;;18.84;64.54;98797.91;5111814;28;20054;-75
2023/07/02 01:31:47;;;;;;;9.50;4.30;;;;;;;18.89;64.23;98792.91;5112211;28;20062;-76
2023/07/02 01:34:15;;;;;;;7.90;3.53;;;;;;;18.91;64.27;98806.91;5111856;28;20109;-77
2023/07/02 01:36:41;;;;;;;5.38;3.97;;;;;;;18.92;64.07;98807.75;5111172;28;20055;-76
2023/07/02 01:39:08;;;;;;;5.05;3.88;;;;;;;18.94;64.33;98808.38;5111673;28;20092;-76
2023/07/02 01:41:55;;;;;;;7.20;4.07;;;;;;;18.89;64.90;98815.06;5111459;28;20055;-75
2023/07/02 01:44:22;;;;;;;8.90;4.05;;;;;;;18.95;64.42;98812.75;5111549;28;20666;-76
2023/07/02 01:46:49;;;;;;;6.28;3.65;;;;;;;18.96;64.34;98814.41;5111051;28;20043;-76
2023/07/02 01:49:19;;;;;;;7.78;3.78;;;;;;;18.93;65.11;98820.91;5111556;28;20083;-77
2023/07/02 01:51:50;;;;;;;4.15;3.78;;;;;;;18.92;64.96;98819.25;5111383;28;20051;-76
2023/07/02 01:54:17;;;;;;;6.53;3.80;;;;;;;18.93;64.56;98820.06;5111592;28;20071;-77
2023/07/02 01:56:44;;;;;;;9.02;4.22;;;;;;;18.93;64.68;98820.06;5109530;28;20047;-76
2023/07/02 01:59:11;;;;;;;8.65;3.95;;;;;;;18.91;64.89;98828.22;5110783;28;20499;-76
2023/07/02 02:01:41;;;;;;;8.50;4.80;;;;;;;18.89;65.06;98823.06;5110152;28;20594;-78
2023/07/02 02:04:11;;;;;;;11.43;4.70;;;;;;;18.87;65.19;98829.56;5111106;28;20518;-77
2023/07/02 02:06:38;;;;;;;5.68;4.22;;;;;;;18.86;65.25;98823.41;5109207;28;20047;-76
2023/07/02 02:09:06;;;;;;;7.38;4.65;;;;;;;18.83;65.12;98820.22;5109924;28;20134;-77
2023/07/02 02:11:39;;;;;;;7.97;4.28;;;;;;;18.77;65.82;98826.22;5111495;28;20055;-77
2023/07/02 02:14:06;;;;;;;9.05;4.65;;;;;;;18.76;65.44;98830.69;5111354;28;20048;-76
2023/07/02 02:16:36;;;;;;;8.48;4.28;;;;;;;18.72;65.58;98840.88;5110720;28;20064;-77
2023/07/02 02:19:04;;;;;;;8.73;4.43;;;;;;;18.70;65.60;98826.88;5111086;28;20438;-76
2023/07/02 02:21:31;;;;;;;5.70;4.32;;;;;;;18.67;65.14;98821.88;5111192;28;20046;-76
2023/07/02 02:23:58;;;;;;;10.10;5.20;;;;;;;18.63;64.95;98831.19;5110952;28;20437;-77
2023/07/02 02:26:25;;;;;;;8.32;5.03;;;;;;;18.59;64.61;98825.34;5110726;28;20050;-77
2023/07/02 02:28:52;;;;;;;9.82;5.30;;;;;;;18.55;64.50;98834.66;5110387;28;20134;-76
2023/07/02 02:31:19;;;;;;;8.68;5.13;;;;;;;18.50;64.49;98834.28;5109421;28;20051;-76
2023/07/02 02:33:46;;;;;;;9.73;4.95;;;;;;;18.45;64.52;98823.28;5111021;28;20063;-76
2023/07/02 02:36:12;;;;;;;8.52;4.63;;;;;;;18.40;64.38;98822.94;5110603;28;20036;-77
2023/07/02 02:38:39;;;;;;;11.70;4.88;;;;;;;18.35;64.44;98832.25;5110859;28;20108;-76
2023/07/02 02:41:08;;;;;;;7.95;4.65;;;;;;;18.32;64.80;98827.25;5110908;28;20039;-77
2023/07/02 02:43:34;;;;;;;10.55;5.25;;;;;;;18.31;64.87;98832.72;5110784;28;20051;-76
2023/07/02 02:46:01;;;;;;;9.88;4.75;;;;;;;18.28;65.25;98831.22;5110407;28;20044;-76
2023/07/02 02:48:27;;;;;;;9.65;4.63;;;;;;;18.26;65.10;98822.56;5110599;28;20055;-77
2023/07/02 02:50:54;;;;;;;11.15;5.18;;;;;;;18.26;65.18;98830.56;5110654;28;20055;-76
2023/07/02 02:53:21;;;;;;;8.40;4.80;;;;;;;18.25;65.34;98834.22;5110679;28;20415;-76
2023/07/02 02:55:47;;;;;;;12.30;5.30;;;;;;;18.24;65.37;98835.22;5110689;28;20097;-76
2023/07/02 02:58:14;;;;;;;11.07;5.65;;;;;;;18.25;65.21;98839.56;5110345;28;20108;-76
2023/07/02 03:00:45;;;;;;;12.07;5.35;;;;;;;18.23;65.16;98834.38;5110297;28;20052;-76
2023/07/02 03:03:13;;;;;;;8.43;5.45;;;;;;;18.24;65.18;98829.88;5110993;28;20050;-76
2023/07/02 03:05:39;;;;;;;13.02;5.07;;;;;;;18.23;65.08;98829.06;5110538;28;20094;-76
2023/07/02 03:08:06;;;;;;;9.10;5.05;;;;;;;18.22;65.20;98831.88;5109266;28;20059;-77
2023/07/02 03:10:33;;;;;;;13.27;5.60;;;;;;;18.20;65.10;98828.53;5113718;28;20396;-76
2023/07/02 03:12:59;;;;;;;12.77;5.20;;;;;;;18.19;65.29;98837.53;5114341;28;20043;-76
2023/07/02 03:15:26;;;;;;;10.13;5.00;;;;;;;18.19;65.24;98845.50;5114176;28;20188;-76
2023/07/02 03:17:52;;;;;;;7.43;4.82;;;;;;;18.18;65.19;98851.84;5114348;28;20460;-76
2023/07/02 03:20:19;;;;;;;9.65;5.38;;;;;;;18.14;65.24;98843.34;5113873;28;20051;-76
2023/07/02 03:22:46;;;;;;;9.95;5.15;;;;;;;18.14;65.59;98850.47;5114451;28;20070;-76
2023/07/02 03:25:12;;;;;;;10.40;5.05;;;;;;;18.14;65.54;98850.47;5112782;28;20082;-77
2023/07/02 03:27:39;;;;;;;9.05;4.90;;;;;;;18.10;65.19;98853.47;5113874;28;20044;-76
2023/07/02 03:30:06;;;;;;;10.38;5.50;;;;;;;18.08;65.32;98851.94;5114204;28;20453;-76
2023/07/02 03:32:33;;;;;;;10.45;5.53;;;;;;;18.05;65.30;98853.06;5113957;28;20079;-76
2023/07/02 03:35:01;;;;;;;9.68;5.55;;;;;;;18.03;65.43;98852.41;5113887;28;20048;-76
2023/07/02 03:37:27;;;;;;;10.93;6.10;;;;;;;18.03;65.15;98856.88;5114018;28;20715;-76
2023/07/02 03:39:54;;;;;;;13.77;5.22;;;;;;;17.99;65.54;98861.72;5112699;28;20051;-76
2023/07/02 03:42:20;;;;;;;9.05;5.25;;;;;;;17.97;65.58;98866.34;5112246;28;20048;-76
2023/07/02 03:44:47;;;;;;;11.68;5.90;;;;;;;17.95;65.42;98865.69;5113767;28;20048;-78
2023/07/02 03:47:15;;;;;;;8.05;4.60;;;;;;;17.93;65.62;98871.16;5112467;28;20090;-78
2023/07/02 03:49:42;;;;;;;10.82;5.43;;;;;;;17.91;65.36;98877.63;5113814;28;20048;-76
2023/07/02 03:52:09;;;;;;;12.13;5.32;;;;;;;17.87;65.52;98879.75;5112234;28;20051;-76
2023/07/02 03:54:38;;;;;;;7.30;5.03;;;;;;;17.84;65.37;98875.56;5113173;28;20051;-76
2023/07/02 03:57:05;;;;;;;11.05;5.82;;;;;;;17.80;65.33;98884.88;5113164;28;20139;-76
2023/07/02 03:59:32;;;;;;;11.52;5.60;;;;;;;17.78;65.61;98886.03;5113798;28;20442;-76
2023/07/02 04:01:58;;;;;;;9.40;5.47;;;;;;;17.73;65.80;98886.50;5113384;28;20052;-76
2023/07/02 04:04:25;;;;;;;13.10;5.97;;;;;;;17.71;65.73;98896.44;5113497;28;20047;-77
2023/07/02 04:06:52;;;;;;;10.23;5.60;;;;;;;17.68;65.98;98897.59;5111877;28;20065;-76
2023/07/02 04:09:18;;;;;;;12.30;5.78;;;;;;;17.69;66.08;98901.09;5113212;28;20058;-76
2023/07/02 04:11:45;;;;;;;12.43;5.80;;;;;;;17.68;66.14;98902.09;5112993;28;20507;-76
2023/07/02 04:14:12;;;;;;;11.60;5.53;;;;;;;17.67;66.06;98903.06;5113412;28;20040;-76
2023/07/02 04:16:38;;;;;;;9.25;5.53;;;;;;;17.66;66.01;98902.25;5113128;28;20113;-76
2023/07/02 04:19:05;;;;;;;12.07;5.78;;;;;;;17.66;65.89;98898.75;5113157;27;20053;-76
2023/07/02 04:21:31;;;;;;;11.27;6.00;;;;;;;17.64;65.76;98906.06;5113256;28;20055;-77
2023/07/02 04:23:58;;;;;;;11.30;6.00;;;;;;;17.61;65.45;98909.88;5112665;28;20047;-76
2023/07/02 04:26:26;;;;;;;12.55;6.03;;;;;;;17.58;65.58;98910.19;5113073;28;20051;-76
2023/07/02 04:29:13;;;;;;;10.65;5.53;;;;;;;17.55;65.53;98913.97;5112868;27;20044;-76
2023/07/02 04:31:39;;;;;;;13.10;6.05;;;;;;;17.51;65.31;98906.44;5112926;28;20104;-76
2023/07/02 04:34:06;;;;;;;15.20;6.50;;;;;;;17.47;65.59;98910.41;5112614;28;20047;-76
2023/07/02 04:36:32;;;;;;;11.27;6.15;;;;;;;17.43;65.44;98917.88;5112171;28;20520;-79
2023/07/02 04:38:59;;;;;;;15.05;6.93;;;;;;;17.39;65.69;98917.34;5113073;28;20058;-76
2023/07/02 04:41:27;;;;;;;15.13;6.30;;;;;;;17.36;65.80;98919.44;5111734;28;20572;-76
2023/07/02 04:43:53;;;;;;;15.88;6.90;;;;;;;17.35;65.90;98918.63;5112402;28;20487;-76
2023/07/02 04:46:20;;;;;;;12.60;6.43;;;;;;;17.32;65.60;98922.41;5112424;28;20138;-77
2023/07/02 04:48:46;;;;;;;15.77;6.43;;;;;;;17.31;65.97;98926.06;5112549;28;20101;-76
2023/07/02 04:51:14;;;;;;;13.68;6.22;;;;;;;17.31;65.89;98922.59;5111147;28;20105;-75
2023/07/02 04:53:40;;;;;;;13.02;5.88;;;;;;;17.31;66.01;98928.72;5112287;28;20126;-76
2023/07/02 04:56:07;;;;;;;14.35;6.82;;;;;;;17.31;65.77;98930.56;5111308;28;20101;-75
2023/07/02 04:58:34;;;;;;;13.00;6.25;;;;;;;17.31;65.90;98934.03;5110922;28;20048;-76
2023/07/02 05:01:01;;;;;;;14.00;7.13;;;;;;;17.34;65.90;98924.09;5112081;28;20130;-76
2023/07/02 05:03:27;;;;;;;15.70;6.70;;;;;;;17.35;66.13;98933.75;5112108;28;20484;-76
2023/07/02 05:05:54;;;;;;;14.38;6.72;;;;;;;17.37;65.80;98931.75;5112111;28;20487;-76
2023/07/02 05:08:20;;;;;;;13.20;6.13;;;;;;;17.37;65.62;98935.25;5112184;28;20405;-76
2023/07/02 05:10:47;;;;;;;13.02;6.57;;;;;;;17.39;65.56;98940.44;5110754;28;20640;-76
2023/07/02 05:13:14;;;;;;;16.48;6.85;;;;;;;17.40;65.58;98934.97;5112243;28;20439;-76
2023/07/02 05:15:41;;;;;;;14.60;6.45;;;;;;;17.41;65.54;98941.09;5110668;28;20073;-75
2023/07/02 05:18:09;;;;;;;17.55;6.85;;;;;;;17.43;65.59;98941.81;5111813;28;20051;-76
2023/07/02 05:20:36;;;;;;;20.33;7.45;;;;;;;17.44;65.61;98940.81;5111921;28;20051;-76
2023/07/02 05:23:02;;;;;;;17.55;7.10;;;;;;;17.48;65.54;98944.84;5111590;28;20127;-76
2023/07/02 05:25:29;;;;;;;16.85;7.35;;;;;;;17.50;65.48;98948.19;5111611;28;20047;-76
2023/07/02 05:27:56;;;;;;;15.98;7.15;;;;;;;17.51;65.36;98944.53;5111713;28;20058;-76
2023/07/02 05:30:22;;;;;;;14.88;6.88;;;;;;;17.55;65.29;98947.72;5111652;28;20048;-75
2023/07/02 05:32:49;;;;;;;21.10;7.50;;;;;;;17.57;65.22;98949.25;5110041;28;20047;-76
2023/07/02 05:35:15;;;;;;;22.13;8.40;;;;;;;17.60;64.87;98955.25;5111910;28;20226;-76
2023/07/02 05:37:42;;;;;;;18.77;7.13;;;;;;;17.62;64.64;98951.47;5111740;28;20052;-75
2023/07/02 05:40:10;;;;;;;16.65;7.75;;;;;;;17.64;64.65;98956.63;5111698;28;20039;-76
2023/07/02 05:42:38;;;;;;;16.38;7.47;;;;;;;17.66;64.74;98952.81;5111536;28;20051;-76
2023/07/02 05:45:05;;;;;;;18.42;7.80;;;;;;;17.67;64.38;98958.97;5111414;28;20051;-75
2023/07/02 05:47:32;;;;;;;16.25;6.70;;;;;;;17.69;64.31;98952.50;5111723;28;20102;-76
2023/07/02 05:49:58;;;;;;;16.38;6.78;;;;;;;17.71;64.59;98961.19;5111685;28;20053;-76
2023/07/02 05:52:25;;;;;;;18.92;7.85;;;;;;;17.74;64.23;98962.69;5111293;28;20124;-76
2023/07/02 05:54:51;;;;;;;20.02;7.65;;;;;;;17.77;64.32;98970.38;5111248;28;20549;-77
2023/07/02 05:57:18;;;;;;;21.67;6.93;;;;;;;17.81;64.52;98973.56;5111582;28;20372;-76
2023/07/02 05:59:44;;;;;;;17.10;7.43;;;;;;;17.84;64.10;98963.44;5111483;28;20055;-76
2023/07/02 06:02:11;;;;;;;13.80;6.78;;;;;;;17.89;64.22;98973.63;5111460;28;20070;-75
2023/07/02 06:04:37;;;;;;;18.15;7.38;;;;;;;17.92;63.99;98980.47;5111634;28;20079;-75
2023/07/02 06:07:04;;;;;;;16.58;7.75;;;;;;;17.95;63.39;98980.16;5111366;28;20508;-75
2023/07/02 06:09:32;;;;;;;15.02;6.93;;;;;;;17.97;63.52;98992.34;5111656;28;20051;-75
2023/07/02 06:11:59;;;;;;;18.98;7.22;;;;;;;18.01;63.21;98989.38;5111136;28;20044;-76
2023/07/02 06:14:26;;;;;;;18.23;7.35;;;;;;;18.03;63.46;98987.38;5111294;28;20054;-75
2023/07/02 06:16:56;;;;;;;12.32;6.93;;;;;;;18.06;63.13;98992.41;5111098;28;20403;-76
2023/07/02 06:19:23;;;;;;;21.15;7.18;;;;;;;18.08;63.20;98993.09;5111616;28;20047;-74
2023/07/02 06:21:49;;;;;;;17.23;7.53;;;;;;;18.11;63.10;98982.13;5111220;28;20048;-75
2023/07/02 06:24:16;;;;;;;22.20;7.28;;;;;;;18.14;62.92;98981.84;5111079;28;20086;-74
2023/07/02 06:26:43;;;;;;;18.55;7.53;;;;;;;18.16;62.92;98981.69;5109592;28;20449;-76
2023/07/02 06:29:09;;;;;;;20.33;7.35;;;;;;;18.19;63.00;98979.53;5111329;28;20115;-75
2023/07/02 06:31:36;;;;;;;18.15;7.65;;;;;;;18.22;62.83;98986.38;5111353;28;20052;-75
2023/07/02 06:34:03;;;;;;;20.48;8.07;;;;;;;18.26;62.73;98990.41;5110849;28;20055;-75
2023/07/02 06:36:29;;;;;;;18.92;7.22;;;;;;;18.31;62.49;98992.56;5110816;28;20050;-74
2023/07/02 06:38:56;;;;;;;20.25;7.63;;;;;;;18.35;62.16;98991.28;5110710;28;20048;-75
2023/07/02 06:41:22;;;;;;;16.70;7.53;;;;;;;18.38;61.93;98998.97;5110793;28;20087;-76
2023/07/02 06:43:49;;;;;;;24.20;7.50;;;;;;;18.44;61.84;99005.50;5111216;28;20051;-75
2023/07/02 06:46:16;;;;;;;18.50;7.78;;;;;;;18.48;61.64;99009.50;5114631;28;20047;-74
2023/07/02 06:48:43;;;;;;;18.45;8.00;;;;;;;18.52;62.04;99000.22;5114720;28;20441;-76
2023/07/02 06:53:56;;;;;;;16.13;7.32;;;;;;;18.63;61.61;99009.75;5063713;22;20112;-81
2023/07/02 06:56:23;;;;;;;17.13;7.35;;;;;;;18.67;61.64;99023.59;5114235;28;20484;-78
2023/07/02 06:58:49;;;;;;;19.50;7.65;;;;;;;18.71;61.34;99025.81;5114704;28;20090;-78
2023/07/02 07:01:16;;;;;;;17.90;7.78;;;;;;;18.75;61.04;99031.66;5114554;28;20048;-79
2023/07/02 07:03:43;;;;;;;16.48;7.80;;;;;;;18.80;60.81;99029.34;5114809;28;20122;-80
2023/07/02 07:06:09;;;;;;;19.17;8.35;;;;;;;18.85;60.79;99036.88;5114591;28;20104;-78
2023/07/02 07:08:39;;;;;;;20.27;8.23;;;;;;;18.89;60.32;99025.72;5114732;28;20062;-79
2023/07/02 07:11:05;;;;;;;16.75;7.97;;;;;;;18.97;60.54;99026.75;5114947;28;20051;-83
2023/07/02 07:13:32;;;;;;;17.42;7.60;;;;;;;19.00;59.64;99031.78;5096320;28;20051;-79
2023/07/02 07:16:00;;;;;;;21.65;8.73;;;;;;;19.06;59.82;99027.66;5113854;28;20048;-78
2023/07/02 07:18:26;;;;;;;20.65;7.90;;;;;;;19.11;59.26;99031.50;5114682;28;20044;-79
2023/07/02 07:20:56;;;;;;;19.63;7.90;;;;;;;19.16;59.59;99028.34;5114791;28;20059;-79
2023/07/02 07:23:23;;;;;;;17.58;7.75;;;;;;;19.20;59.57;99035.03;5114446;28;20047;-78
2023/07/02 07:25:49;;;;;;;17.67;7.88;;;;;;;19.25;59.13;99037.25;5099948;28;20610;-79
2023/07/02 07:28:16;;;;;;;26.63;8.90;;;;;;;19.30;58.56;99034.91;5108381;28;20047;-80
2023/07/02 07:30:43;;;;;;;21.90;8.27;;;;;;;19.35;58.81;99032.59;5114113;28;20048;-80
2023/07/02 07:33:10;;;;;;;22.35;8.45;;;;;;;19.40;58.74;99032.94;5114342;28;20130;-80
2023/07/02 07:35:37;;;;;;;18.00;7.25;;;;;;;19.48;58.89;99058.78;5113929;28;20074;-81
2023/07/02 07:38:03;;;;;;;18.38;7.47;;;;;;;19.54;58.21;99046.63;5112541;28;20047;-80
2023/07/02 07:40:30;;;;;;;20.38;8.25;;;;;;;19.59;57.72;99043.47;5112527;28;20055;-80
2023/07/02 07:42:56;;;;;;;16.55;8.43;;;;;;;19.65;58.01;99049.00;5112345;28;20049;-80
2023/07/02 07:45:23;;;;;;;16.48;8.25;;;;;;;19.72;57.05;99051.00;5112240;28;20044;-80
2023/07/02 07:47:50;;;;;;;16.88;8.07;;;;;;;19.76;56.83;99042.50;5112516;28;20040;-81
2023/07/02 07:50:17;;;;;;;18.30;7.35;;;;;;;19.81;56.55;99059.88;5112553;28;20050;-80
2023/07/02 07:52:43;;;;;;;20.10;7.88;;;;;;;19.84;55.67;99056.88;5113720;28;20549;-80
2023/07/02 07:55:10;;;;;;;16.15;7.43;;;;;;;19.86;55.21;99045.03;5113123;28;20052;-80
2023/07/02 07:57:37;;;;;;;19.40;8.05;;;;;;;19.88;55.32;99053.69;5113075;28;20127;-79
2023/07/02 08:00:07;;;;;;;15.43;7.05;;;;;;;19.92;54.73;99040.84;5095828;28;20040;-80
2023/07/02 08:02:34;;;;;;;23.40;7.95;;;;;;;19.95;54.52;99048.53;5113663;28;20035;-80
2023/07/02 08:05:02;;;;;;;17.17;6.93;;;;;;;19.97;54.84;99051.88;5113232;28;20052;-80
2023/07/02 08:07:28;;;;;;;17.70;7.70;;;;;;;20.01;53.91;99052.41;5113563;28;20590;-81
2023/07/02 08:09:55;;;;;;;18.60;7.50;;;;;;;20.04;53.90;99052.91;5113094;28;20048;-80
2023/07/02 08:12:22;;;;;;;14.75;7.15;;;;;;;20.10;53.82;99048.72;5095039;28;20047;-80
2023/07/02 08:14:49;;;;;;;15.93;7.10;;;;;;;20.14;53.62;99060.75;5113763;28;20091;-80
2023/07/02 08:17:15;;;;;;;13.98;6.75;;;;;;;20.20;53.05;99064.59;5113342;28;20109;-80
2023/07/02 08:19:42;;;;;;;15.10;6.63;;;;;;;20.24;52.59;99057.91;5113559;28;20051;-80
2023/07/02 08:22:09;;;;;;;15.63;7.00;;;;;;;20.28;52.81;99045.03;5113401;28;20086;-80
2023/07/02 08:24:35;;;;;;;13.05;6.68;;;;;;;20.31;53.18;99042.03;5113176;28;20519;-80
2023/07/02 08:27:05;;;;;;;12.95;6.88;;;;;;;20.36;53.01;99060.22;5093758;28;20760;-80
2023/07/02 08:29:32;;;;;;;13.02;6.38;;;;;;;20.45;52.84;99051.22;5113442;28;20106;-81
2023/07/02 08:31:58;;;;;;;16.70;6.78;;;;;;;20.52;52.67;99054.88;5104675;28;20047;-81
2023/07/02 08:34:25;;;;;;;13.73;6.47;;;;;;;20.60;52.11;99069.22;5112934;28;20063;-81
2023/07/02 08:36:52;;;;;;;13.50;6.70;;;;;;;20.66;51.50;99071.22;5112284;28;20153;-81
2023/07/02 08:39:18;;;;;;;13.65;6.43;;;;;;;20.69;51.67;99063.72;5112732;28;20051;-80
2023/07/02 08:41:46;;;;;;;13.02;6.13;;;;;;;20.72;51.34;99080.41;5112948;28;20040;-80
2023/07/02 08:44:14;;;;;;;19.02;6.65;;;;;;;20.76;50.84;99066.53;5112899;28;20052;-81
2023/07/02 08:46:42;;;;;;;16.45;6.18;;;;;;;20.77;50.54;99076.22;5112469;28;20047;-82
2023/07/02 08:49:09;;;;;;;12.05;6.07;;;;;;;20.82;50.95;99075.72;5112357;28;20127;-81
2023/07/02 08:51:35;;;;;;;12.95;5.85;;;;;;;20.83;50.43;99104.13;5112765;28;20097;-80
2023/07/02 08:54:02;;;;;;;14.45;6.43;;;;;;;20.84;50.10;99076.38;5112328;28;20069;-82
2023/07/02 08:56:30;;;;;;;12.82;6.60;;;;;;;20.85;50.07;99078.03;5094136;28;20631;-81
2023/07/02 08:58:56;;;;;;;10.90;5.95;;;;;;;20.87;50.32;99088.56;5112269;28;20058;-81
2023/07/02 09:01:23;;;;;;;14.55;5.82;;;;;;;20.90;50.37;99088.25;5112090;28;20531;-80
2023/07/02 09:03:50;;;;;;;15.20;6.43;;;;;;;20.93;50.64;99094.09;5112451;28;20464;-81
2023/07/02 09:06:18;;;;;;;14.40;6.60;;;;;;;21.01;50.63;99084.38;5111491;28;20078;-80
2023/07/02 09:08:45;;;;;;;14.30;6.05;;;;;;;21.12;51.27;99086.66;5111876;28;20090;-81
2023/07/02 09:11:16;;;;;;;14.90;6.03;;;;;;;21.21;48.34;99099.03;5112075;28;20039;-80
2023/07/02 09:13:50;;;;;;;13.18;6.05;;;;;;;21.33;48.83;99102.16;5112188;28;20057;-82
2023/07/02 09:16:31;;;;;;;12.93;6.35;;;;;;;21.34;46.73;99098.47;5111803;28;20054;-80
2023/07/02 09:18:59;;;;;;;14.35;5.90;;;;;;;21.36;47.78;99106.31;5112336;28;20538;-81
2023/07/02 09:21:38;;;;;;;12.70;5.32;;;;;;;21.28;46.72;99109.03;5112103;28;20047;-80
2023/07/02 09:24:21;;;;;;;12.27;6.35;;;;;;;21.21;46.74;99107.06;5094068;28;20082;-81
2023/07/02 09:26:54;;;;;;;10.98;5.70;;;;;;;21.17;46.88;99105.72;5111473;28;20048;-81
2023/07/02 09:29:33;;;;;;;10.82;6.15;;;;;;;21.14;48.19;99110.56;5111885;28;20047;-81
2023/07/02 09:32:03;;;;;;;11.35;5.70;;;;;;;21.18;48.87;99106.53;5111188;28;20100;-81
2023/07/02 09:34:38;;;;;;;13.48;6.20;;;;;;;21.25;48.54;99104.00;5111578;28;20052;-80
2023/07/02 09:37:05;;;;;;;10.52;5.65;;;;;;;21.34;48.18;99102.97;5111336;28;20044;-82
2023/07/02 09:39:34;;;;;;;13.43;5.88;;;;;;;21.41;47.61;99108.50;5111593;28;20051;-80
2023/07/02 09:42:04;;;;;;;12.77;6.25;;;;;;;21.46;47.30;99109.59;5111161;28;20051;-81
2023/07/02 09:44:33;;;;;;;12.77;6.25;;;;;;;21.47;47.16;99111.28;5111712;28;20112;-82
2023/07/02 09:47:08;;;;;;;16.73;5.57;;;;;;;21.44;46.50;99118.81;5111005;28;20423;-80
2023/07/02 09:49:36;;;;;;;11.13;5.88;;;;;;;21.41;46.64;99122.69;5111608;28;20104;-82
2023/07/02 09:52:06;;;;;;;13.00;5.88;;;;;;;21.35;46.41;99120.72;5110843;28;20135;-80
2023/07/02 09:54:33;;;;;;;13.02;5.85;;;;;;;21.27;46.71;99121.56;5111192;28;20048;-81
2023/07/02 09:57:00;;;;;;;12.88;6.07;;;;;;;21.20;46.77;99134.81;5093169;28;20047;-81
2023/07/02 09:59:28;;;;;;;12.63;6.05;;;;;;;21.14;47.69;99138.19;5111241;28;20498;-80
2023/07/02 10:01:55;;;;;;;13.20;5.75;;;;;;;21.14;47.67;99127.47;5111093;28;20101;-81
2023/07/02 10:04:25;;;;;;;11.98;5.75;;;;;;;21.15;47.72;99123.78;5111240;28;20059;-81
2023/07/02 10:06:57;;;;;;;17.88;6.50;;;;;;;21.17;47.48;99142.34;5110722;28;20154;-81
2023/07/02 10:09:36;;;;;;;18.10;6.70;;;;;;;21.13;46.98;99123.13;5111155;28;20055;-80
2023/07/02 10:12:20;;;;;;;13.45;5.80;;;;;;;21.09;46.36;99130.66;5111024;28;20051;-79
2023/07/02 10:14:49;;;;;;;12.35;6.20;;;;;;;21.11;46.95;99141.19;5110882;28;20055;-81
2023/07/02 10:17:29;;;;;;;17.88;5.78;;;;;;;21.04;46.93;99137.56;5110672;28;20138;-81
2023/07/02 10:19:58;;;;;;;11.55;5.97;;;;;;;21.06;47.44;99131.03;5111154;28;20044;-81
2023/07/02 10:22:25;;;;;;;9.98;5.63;;;;;;;21.11;47.98;99133.16;5110743;28;20536;-81
2023/07/02 10:24:53;;;;;;;15.90;6.28;;;;;;;21.17;47.96;99129.81;5092508;28;20059;-80
2023/07/02 10:27:20;;;;;;;13.23;5.70;;;;;;;21.26;47.22;99132.47;5110928;28;20130;-80
2023/07/02 10:29:53;;;;;;;11.05;6.18;;;;;;;21.31;46.67;99132.78;5110904;28;20063;-81
2023/07/02 10:32:29;;;;;;;15.65;5.75;;;;;;;21.35;46.56;99134.91;5110778;28;20495;-80
2023/07/02 10:34:58;;;;;;;14.25;6.25;;;;;;;21.40;46.88;99142.44;5110919;28;20040;-80
2023/07/02 10:37:25;;;;;;;14.98;6.43;;;;;;;21.41;46.74;99136.06;5110641;28;20048;-80
2023/07/02 10:39:52;;;;;;;10.27;5.82;;;;;;;21.43;47.06;99157.31;5110522;28;20055;-80
2023/07/02 10:42:18;;;;;;;12.48;5.93;;;;;;;21.46;46.69;99144.41;5109767;28;20047;-82
2023/07/02 10:44:51;;;;;;;10.25;5.68;;;;;;;21.47;46.36;99146.09;5110414;28;20058;-80
2023/07/02 10:47:19;;;;;;;12.95;6.38;;;;;;;21.56;46.81;99138.00;5092622;28;20133;-80
2023/07/02 10:49:46;;;;;;;15.73;6.00;;;;;;;21.61;46.39;99138.34;5092870;28;20047;-81
2023/07/02 10:52:12;;;;;;;9.85;5.90;;;;;;;21.64;45.93;99140.66;5110528;28;20215;-80
2023/07/02 10:54:47;;;;;;;11.48;5.85;;;;;;;21.64;45.29;99148.69;5110178;28;20052;-80
2023/07/02 10:57:20;;;;;;;13.85;5.72;;;;;;;21.74;46.59;99149.34;5110130;28;20063;-81
2023/07/02 10:59:47;;;;;;;;;;;;;;;21.93;48.46;99143.69;5092712;28;20050;-81
2023/07/02 11:02:14;;;;;;;10.10;4.70;;;;;;;22.39;48.50;99137.53;5110787;28;19971;-82
2023/07/02 11:04:41;;;;;;;9.82;4.90;;;;;;;22.88;48.25;99132.75;5110208;28;20076;-82
2023/07/02 11:07:10;;;;;;;7.72;4.43;;;;;;;23.39;45.33;99139.25;5109976;28;20044;-81
2023/07/02 11:09:36;;;;;;;15.98;5.05;;;;;;;23.77;44.66;99133.72;5110360;28;20396;-82
2023/07/02 11:12:03;;;;;;;10.82;5.50;;;;;;;24.01;43.35;99155.06;5110564;28;20044;-81
2023/07/02 11:14:32;;;;;;;10.82;4.68;;;;;;;24.06;42.07;99145.41;5108371;28;20040;-83
2023/07/02 11:17:03;;;;;;;8.40;4.78;;;;;;;24.02;41.67;99149.50;5114228;28;20043;-82
2023/07/02 11:19:29;;;;;;;11.20;5.15;;;;;;;23.91;41.55;99147.31;5115399;28;20086;-82
2023/07/02 11:21:57;;;;;;;9.85;4.78;;;;;;;23.79;41.03;99155.03;5109935;28;20123;-81
2023/07/02 11:24:35;;;;;;;10.10;4.68;;;;;;;23.73;42.01;99143.19;5110267;28;20043;-83
2023/07/02 11:27:05;;;;;;;9.52;4.43;;;;;;;23.91;43.06;99147.31;5109985;28;20134;-82
2023/07/02 11:29:33;;;;;;;9.02;4.85;;;;;;;24.22;44.15;99143.50;5110248;28;20427;-82
2023/07/02 11:32:07;;;;;;;7.72;4.20;;;;;;;24.66;41.80;99138.09;5113533;28;20793;-82
2023/07/02 11:34:34;;;;;;;11.15;4.28;;;;;;;25.17;43.05;99150.47;5111676;28;20130;-82